Terminal Aerodrome Forecast
Issued by NWS Nashville, TN

Home | Current Version | Previous Version | Text Only | Print | Product List | Glossary On
Versions: 1 2 3 4 5 6 7 8 9 10 11 12 13 14 15 16 17 18 19 20 21 22 23 24 25 26 27 28 29 30 31 32 33 34 35 36 37 38 39 40 41 42
526
FTUS44 KOHX 181223 AAE
TAFCSV
TAF AMD
KCSV 181223Z 1812/1912 27005KT P6SM BKN008 BKN012 OVC060
     FM181400 27005KT P6SM SCT035 BKN070
     FM181600 28006KT P6SM SCT070
     FM190200 00000KT P6SM SKC
     FM190600 00000KT 4SM BR SKC
     FM190900 00000KT 2SM BR SKC=

USA.gov is the U.S. government's official web portal to all federal, state and local government web resources and services.